createdAt,value
2019-05-19T00:00:08.470Z,1.21
2019-05-19T00:15:08.885Z,1.23
2019-05-19T00:30:09.691Z,1.4
2019-05-19T00:45:09.737Z,1.55
2019-05-19T01:00:09.952Z,1.42
2019-05-19T01:15:09.996Z,1.36
2019-05-19T01:30:10.890Z,1.57
2019-05-19T01:45:12.108Z,1.7
2019-05-19T02:00:12.113Z,1.41
2019-05-19T02:15:12.168Z,1.25
2019-05-19T02:30:12.744Z,1.35
2019-05-19T02:45:12.999Z,1.49
2019-05-19T03:00:03.089Z,1.5
2019-05-19T03:15:04.551Z,1.46
2019-05-19T03:30:06.410Z,1.21
2019-05-19T03:45:06.436Z,1.33
2019-05-19T04:00:06.485Z,1.47
2019-05-19T04:15:06.531Z,1.37
2019-05-19T04:30:06.652Z,1.68
2019-05-19T04:45:08.088Z,1.4
2019-05-19T05:00:08.458Z,1.59
2019-05-19T05:15:08.384Z,1.48
2019-05-19T05:30:09.265Z,1.47
2019-05-19T05:45:10.587Z,1.24
2019-05-19T06:00:15.628Z,1.28
2019-05-19T06:15:02.792Z,1.55
2019-05-19T06:30:08.607Z,1.37
2019-05-19T06:45:06.272Z,1.29
2019-05-19T07:00:07.641Z,1.47
2019-05-19T07:15:10.611Z,1.51
2019-05-19T07:30:11.736Z,1.42
2019-05-19T07:45:05.049Z,1.45
2019-05-19T08:00:08.024Z,1.46
2019-05-19T08:15:03.107Z,1.43
2019-05-19T08:30:05.809Z,1.55
2019-05-19T08:45:08.937Z,1.28
2019-05-19T09:00:03.125Z,1.13
2019-05-19T09:15:11.710Z,1.1
2019-05-19T09:30:09.642Z,1.36
2019-05-19T09:45:10.008Z,1.28
2019-05-19T10:00:05.243Z,1.25
2019-05-19T10:15:08.719Z,1.37
2019-05-19T10:30:03.706Z,1.27
2019-05-19T10:45:05.055Z,1.76
2019-05-19T11:00:12.964Z,1.81
2019-05-19T11:15:09.508Z,1.8
2019-05-19T11:30:12.302Z,1.95
2019-05-19T11:45:03.756Z,2.07
2019-05-19T12:00:06.818Z,2.24
2019-05-19T12:15:10.666Z,1.76
2019-05-19T12:30:09.321Z,1.5
2019-05-19T12:45:04.596Z,1.39
2019-05-19T13:00:08.963Z,1.67
2019-05-19T13:15:07.535Z,1.29
2019-05-19T13:30:12.792Z,1.35
2019-05-19T13:45:10.107Z,1.26
2019-05-19T14:00:05.363Z,1.36
2019-05-19T14:15:04.204Z,1.61
2019-05-19T14:30:06.175Z,1.47
2019-05-19T14:45:10.899Z,1.53
2019-05-19T15:00:03.608Z,1.74
2019-05-19T15:15:10.586Z,1.72
2019-05-19T15:30:12.739Z,1.7
2019-05-19T15:45:11.715Z,1.79
2019-05-19T16:00:05.691Z,1.92
2019-05-19T16:15:06.258Z,1.87
2019-05-19T16:30:11.201Z,1.89
2019-05-19T16:45:10.352Z,1.49
2019-05-19T17:00:10.602Z,1.32
2019-05-19T17:15:06.673Z,1.15
2019-05-19T17:30:05.808Z,1.26
2019-05-19T17:45:08.650Z,1.2
2019-05-19T18:00:10.198Z,1.22
2019-05-19T18:15:11.738Z,1.18
2019-05-19T18:30:11.581Z,1.16
2019-05-19T18:45:05.356Z,1.1
2019-05-19T19:00:03.981Z,1.03
2019-05-19T19:15:06.557Z,1.13
2019-05-19T19:30:10.175Z,1.15
2019-05-19T19:45:11.225Z,1.36
2019-05-19T20:00:18.147Z,1.33
2019-05-19T20:15:12.093Z,1.18
2019-05-19T20:30:12.212Z,1.15
2019-05-19T20:45:12.562Z,1.36
2019-05-19T21:00:12.847Z,1.1
2019-05-19T21:15:03.096Z,1.09
2019-05-19T21:30:03.873Z,1.35
2019-05-19T21:45:04.166Z,1.65
2019-05-19T22:00:05.230Z,1.34
2019-05-19T22:15:08.010Z,1.26
2019-05-19T22:30:08.204Z,1.16
2019-05-19T22:45:08.109Z,1.3
2019-05-19T23:00:08.176Z,1.19
2019-05-19T23:15:08.441Z,1.19
2019-05-19T23:30:08.510Z,1.21
2019-05-19T23:45:10.347Z,1.32
